Time;durP1;ratioP1;P1;durP2;ratioP2;P2;SDS_P1;SDS_P2;PMS_P1;PMS_P2;Temp;Humidity;BMP_temperature;BMP_pressure;BME280_temperature;BME280_humidity;BME280_pressure;Samples;Min_cycle;Max_cycle;Signal;HPM_P1;HPM_P2
2023/01/07 00:01:39;;;;;;;10.88;2.83;;;20.00;60.00;;;;;;5031429;28;20554;-67
2023/01/07 00:04:09;;;;;;;7.32;2.60;;;19.90;61.30;;;;;;5031806;28;20128;-68
2023/01/07 00:06:38;;;;;;;13.13;3.03;;;19.80;62.50;;;;;;5031400;28;20201;-68
2023/01/07 00:09:06;;;;;;;27.13;12.93;;;19.70;61.80;;;;;;5030062;28;20637;-68
2023/01/07 00:11:39;;;;;;;12.90;3.78;;;19.60;61.40;;;;;;5031284;28;20089;-71
2023/01/07 00:14:07;;;;;;;10.60;2.65;;;19.50;61.90;;;;;;5032235;28;20438;-69
2023/01/07 00:16:34;;;;;;;10.70;2.30;;;19.40;63.80;;;;;;5031513;28;20639;-68
2023/01/07 00:19:03;;;;;;;6.20;1.95;;;19.30;63.40;;;;;;5031541;28;20077;-70
2023/01/07 00:21:29;;;;;;;12.07;1.70;;;19.30;68.00;;;;;;5032632;28;20104;-72
2023/01/07 00:23:58;;;;;;;6.88;1.90;;;19.20;64.90;;;;;;5029558;28;20097;-71
2023/01/07 00:26:28;;;;;;;9.27;1.80;;;19.20;66.70;;;;;;5030053;28;20121;-69
2023/01/07 00:28:54;;;;;;;8.38;2.50;;;19.10;65.50;;;;;;5031279;28;20415;-70
2023/01/07 00:31:30;;;;;;;13.52;2.80;;;19.00;64.10;;;;;;5032117;28;20132;-72
2023/01/07 00:36:25;;;;;;;9.10;2.15;;;18.70;63.80;;;;;;5030975;28;20124;-69
2023/01/07 00:39:07;;;;;;;11.65;2.22;;;18.70;63.40;;;;;;5030136;28;20070;-70
2023/01/07 00:41:34;;;;;;;12.13;1.98;;;18.60;65.30;;;;;;5030391;28;20081;-70
2023/01/07 00:44:00;;;;;;;14.60;1.92;;;18.50;64.40;;;;;;5030603;28;20082;-68
2023/01/07 00:46:26;;;;;;;12.68;2.35;;;18.40;66.80;;;;;;5030792;28;20165;-70
2023/01/07 00:48:53;;;;;;;10.88;2.38;;;18.30;69.40;;;;;;5030688;28;20101;-70
2023/01/07 00:51:19;;;;;;;14.70;2.50;;;18.30;69.20;;;;;;5031488;28;20114;-71
2023/01/07 00:53:46;;;;;;;8.60;2.40;;;18.20;68.80;;;;;;5030698;28;20435;-71
2023/01/07 00:56:14;;;;;;;12.80;2.35;;;18.00;67.50;;;;;;5029136;28;20066;-68
2023/01/07 00:58:41;;;;;;;10.15;2.30;;;18.00;67.50;;;;;;5030679;28;20066;-70
2023/01/07 01:01:09;;;;;;;11.48;1.95;;;17.90;69.60;;;;;;5029264;28;20078;-69
2023/01/07 01:03:36;;;;;;;177.63;146.25;;;17.80;68.80;;;;;;5030224;28;20150;-67
2023/01/07 01:06:05;;;;;;;229.98;152.15;;;17.70;69.30;;;;;;5029520;28;20078;-68
2023/01/07 01:08:31;;;;;;;35.85;22.45;;;17.60;68.20;;;;;;5029346;28;20070;-69
2023/01/07 01:11:03;;;;;;;21.98;9.70;;;17.50;69.40;;;;;;5030343;28;20548;-70
2023/01/07 01:13:30;;;;;;;12.23;2.90;;;17.40;70.10;;;;;;5030816;28;20148;-70
2023/01/07 01:15:56;;;;;;;15.15;3.65;;;17.40;70.80;;;;;;5031172;28;20105;-71
2023/01/07 01:18:23;;;;;;;20.48;3.15;;;17.30;71.30;;;;;;5030286;28;20073;-68
2023/01/07 01:20:49;;;;;;;16.77;3.53;;;17.20;71.40;;;;;;5029561;28;20082;-69
2023/01/07 01:23:15;;;;;;;24.05;4.07;;;17.10;72.00;;;;;;5030438;28;20164;-71
2023/01/07 01:25:42;;;;;;;22.30;4.00;;;17.00;71.80;;;;;;5029042;28;20474;-72
2023/01/07 01:28:08;;;;;;;16.67;4.22;;;17.00;72.30;;;;;;5030413;28;20085;-70
2023/01/07 01:30:35;;;;;;;15.10;4.38;;;16.90;72.60;;;;;;5029595;28;20096;-68
2023/01/07 01:33:01;;;;;;;23.77;4.35;;;16.90;74.50;;;;;;5030469;28;20201;-70
2023/01/07 01:35:28;;;;;;;17.88;4.13;;;16.80;74.10;;;;;;5030365;28;20066;-71
2023/01/07 01:37:54;;;;;;;16.83;4.00;;;16.80;76.00;;;;;;5030786;28;20073;-71
2023/01/07 01:40:20;;;;;;;20.25;4.03;;;16.70;75.20;;;;;;5030492;28;20074;-70
2023/01/07 01:42:47;;;;;;;23.17;4.13;;;16.60;74.80;;;;;;5030394;28;20076;-69
2023/01/07 01:45:13;;;;;;;24.73;5.07;;;16.50;74.40;;;;;;5031113;28;20096;-69
2023/01/07 01:47:49;;;;;;;20.90;4.72;;;16.50;75.80;;;;;;5029962;28;20581;-71
2023/01/07 01:50:37;;;;;;;19.10;5.07;;;16.50;75.80;;;;;;5029381;28;20103;-69
2023/01/07 01:53:09;;;;;;;27.33;5.85;;;16.40;75.60;;;;;;5028591;28;20094;-69
2023/01/07 01:55:41;;;;;;;18.38;5.80;;;16.30;76.20;;;;;;5029035;28;20092;-69
2023/01/07 01:58:13;;;;;;;31.17;6.05;;;16.20;76.30;;;;;;5030315;28;20228;-71
2023/01/07 02:00:41;;;;;;;16.77;4.88;;;16.20;77.20;;;;;;5029642;28;20172;-70
2023/01/07 02:03:11;;;;;;;26.83;5.18;;;16.10;77.20;;;;;;5029911;28;20438;-72
2023/01/07 02:05:41;;;;;;;13.13;3.85;;;16.10;77.00;;;;;;5029950;28;20081;-72
2023/01/07 02:08:08;;;;;;;20.85;4.40;;;16.10;76.50;;;;;;5030037;28;20124;-71
2023/01/07 02:10:34;;;;;;;15.00;3.80;;;16.00;76.30;;;;;;5029813;28;20086;-70
2023/01/07 02:13:38;;;;;;;13.27;4.05;;;16.00;76.60;;;;;;5030204;28;20062;-69
2023/01/07 02:16:36;;;;;;;12.82;3.97;;;16.00;77.80;;;;;;5005648;28;20097;-73
2023/01/07 02:19:56;;;;;;;15.60;4.43;;;16.00;77.90;;;;;;5007460;28;20637;-69
2023/01/07 02:22:34;;;;;;;15.98;4.35;;;15.90;78.30;;;;;;5007705;28;20157;-68
2023/01/07 02:25:18;;;;;;;15.43;4.20;;;15.80;78.70;;;;;;5007659;28;20184;-71
2023/01/07 02:28:19;;;;;;;14.70;4.25;;;15.80;78.90;;;;;;5007139;28;20113;-65
2023/01/07 02:30:54;;;;;;;16.88;4.43;;;15.70;79.80;;;;;;5007959;28;20456;-71
2023/01/07 02:33:26;;;;;;;18.02;4.78;;;15.70;79.50;;;;;;5010515;28;20078;-70
2023/01/07 02:36:17;;;;;;;16.30;4.88;;;15.80;80.00;;;;;;5011473;28;20160;-72
2023/01/07 02:39:03;;;;;;;14.50;5.05;;;15.80;80.10;;;;;;5010398;28;20086;-68
2023/01/07 02:41:54;;;;;;;17.55;6.07;;;15.70;79.70;;;;;;5010741;28;20539;-70
2023/01/07 02:44:39;;;;;;;25.60;5.72;;;15.70;80.50;;;;;;5011525;28;20181;-69
2023/01/07 02:47:33;;;;;;;22.83;5.85;;;15.70;80.30;;;;;;5010113;28;20122;-70
2023/01/07 02:49:59;;;;;;;14.07;4.47;;;15.70;80.70;;;;;;5010219;28;20576;-69
2023/01/07 02:52:30;;;;;;;18.90;4.07;;;15.60;80.60;;;;;;5022792;28;20086;-69
2023/01/07 02:54:56;;;;;;;18.35;4.32;;;15.60;81.10;;;;;;5033126;28;20066;-69
2023/01/07 02:58:24;;;;;;;14.25;3.40;;;15.60;81.50;;;;;;5032956;28;20581;-71
2023/01/07 03:01:10;;;;;;;12.68;3.72;;;15.50;81.60;;;;;;5032262;28;20517;-69
2023/01/07 03:03:43;;;;;;;11.20;2.95;;;15.40;81.00;;;;;;5031737;28;20090;-70
2023/01/07 03:06:51;;;;;;;11.20;2.92;;;15.40;81.80;;;;;;5031896;28;20074;-73
2023/01/07 03:09:41;;;;;;;14.27;2.90;;;15.40;81.30;;;;;;5032501;28;20136;-71
2023/01/07 03:12:42;;;;;;;13.90;3.00;;;15.30;81.40;;;;;;5031021;28;20073;-69
2023/01/07 03:15:47;;;;;;;13.65;2.95;;;15.20;81.70;;;;;;5034332;28;20101;-69
2023/01/07 03:18:37;;;;;;;15.07;3.45;;;15.10;81.70;;;;;;4978177;28;20095;-69
2023/01/07 03:21:08;;;;;;;22.88;4.18;;;15.10;82.60;;;;;;4981425;28;20079;-69
2023/01/07 03:23:40;;;;;;;20.50;5.38;;;15.00;82.90;;;;;;4981746;28;20075;-67
2023/01/07 03:26:09;;;;;;;18.90;5.40;;;14.90;83.40;;;;;;4983765;28;20126;-67
2023/01/07 03:28:40;;;;;;;22.90;6.22;;;14.90;84.50;;;;;;4980364;28;20174;-69
2023/01/07 03:31:10;;;;;;;25.00;5.60;;;14.80;85.50;;;;;;4987022;28;20556;-67
2023/01/07 03:33:51;;;;;;;23.98;5.60;;;14.70;85.40;;;;;;4983546;28;20114;-68
2023/01/07 03:36:22;;;;;;;19.63;5.53;;;14.70;85.20;;;;;;4981900;28;20083;-67
2023/01/07 03:38:50;;;;;;;23.90;6.88;;;14.70;85.00;;;;;;4968532;28;20094;-66
2023/01/07 03:44:01;;;;;;;29.77;8.88;;;14.50;84.50;;;;;;4977553;28;20090;-69
2023/01/07 03:46:28;;;;;;;23.67;8.02;;;14.50;85.00;;;;;;4981103;28;20492;-66
2023/01/07 03:48:54;;;;;;;25.80;8.02;;;14.40;85.80;;;;;;4980540;28;21595;-70
2023/01/07 03:51:20;;;;;;;;;;;14.40;86.10;;;;;;4983912;28;20101;-68
2023/01/07 03:53:47;;;;;;;32.70;8.98;;;14.30;86.20;;;;;;4992451;28;19957;-69
2023/01/07 03:56:13;;;;;;;;;;;14.30;86.50;;;;;;5032548;28;20071;-69
2023/01/07 03:58:39;;;;;;;36.92;9.57;;;14.20;86.90;;;;;;5032051;28;20378;-69
2023/01/07 04:01:05;;;;;;;;;;;14.20;87.50;;;;;;5032726;28;20074;-67
2023/01/07 04:03:31;;;;;;;32.25;11.23;;;14.10;87.60;;;;;;5031449;28;19957;-68
2023/01/07 04:05:57;;;;;;;;;;;14.20;88.20;;;;;;5032380;28;20123;-69
2023/01/07 04:08:24;;;;;;;45.00;17.75;;;14.00;88.60;;;;;;5031572;28;19959;-67
2023/01/07 04:10:50;;;;;;;;;;;14.10;88.90;;;;;;5031905;28;20078;-65
2023/01/07 04:13:16;;;;;;;54.25;16.85;;;14.20;89.90;;;;;;5031522;28;20015;-67
2023/01/07 04:15:43;;;;;;;;;;;14.70;88.40;;;;;;5031592;28;20137;-64
2023/01/07 04:18:09;;;;;;;40.42;13.95;;;15.00;86.30;;;;;;5031518;28;19960;-65
2023/01/07 04:20:36;;;;;;;43.28;15.02;;;15.30;85.60;;;;;;5030478;28;20085;-65
2023/01/07 04:23:02;;;;;;;;;;;15.40;85.30;;;;;;5031498;28;20074;-67
2023/01/07 04:25:31;;;;;;;47.10;14.13;;;15.50;84.50;;;;;;5030886;28;19986;-66
2023/01/07 04:27:57;;;;;;;39.45;14.02;;;15.60;83.80;;;;;;5028755;28;20069;-67
2023/01/07 04:30:23;;;;;;;;;;;15.60;83.20;;;;;;5030788;28;20113;-70
2023/01/07 04:32:50;;;;;;;53.78;17.42;;;15.70;83.00;;;;;;5030128;28;19981;-70
2023/01/07 04:35:16;;;;;;;38.13;17.05;;;15.80;83.00;;;;;;5029501;28;20108;-68
2023/01/07 04:37:43;;;;;;;35.97;13.38;;;15.80;81.00;;;;;;5028841;28;20074;-68
2023/01/07 04:40:09;;;;;;;31.35;11.23;;;15.80;81.30;;;;;;5029305;28;20080;-69
2023/01/07 04:42:36;;;;;;;35.25;12.40;;;15.60;81.30;;;;;;5029494;28;20085;-71
2023/01/07 04:45:02;;;;;;;;;;;15.50;81.80;;;;;;5030461;28;20540;-71
2023/01/07 04:47:28;;;;;;;41.65;16.27;;;15.40;81.70;;;;;;5028043;28;20018;-70
2023/01/07 04:49:55;;;;;;;;;;;15.30;83.30;;;;;;5027002;28;20089;-69
2023/01/07 04:52:21;;;;;;;46.78;15.35;;;15.20;82.50;;;;;;5028011;28;20407;-72
2023/01/07 04:54:48;;;;;;;62.30;17.98;;;15.10;83.00;;;;;;5027300;28;20117;-71
2023/01/07 04:57:14;;;;;;;;;;;15.10;84.40;;;;;;5028845;28;20469;-71
2023/01/07 04:59:40;;;;;;;39.08;14.63;;;15.00;84.90;;;;;;5027746;28;19957;-72
2023/01/07 05:02:06;;;;;;;50.10;16.60;;;15.10;84.00;;;;;;5029813;28;20078;-70
2023/01/07 05:04:32;;;;;;;;;;;15.10;83.50;;;;;;5030916;28;20066;-70
2023/01/07 05:06:59;;;;;;;45.55;13.15;;;15.00;83.40;;;;;;5029582;28;19961;-71
2023/01/07 05:09:25;;;;;;;;;;;15.00;83.70;;;;;;5030006;28;20103;-69
2023/01/07 05:11:51;;;;;;;64.63;18.38;;;14.80;83.70;;;;;;5029647;28;19977;-69
2023/01/07 05:14:17;;;;;;;;;;;14.70;83.70;;;;;;5030870;28;20066;-71
2023/01/07 05:16:44;;;;;;;76.32;20.05;;;14.60;84.20;;;;;;5031419;28;19965;-68
2023/01/07 05:19:10;;;;;;;;;;;14.60;84.30;;;;;;5030082;28;20088;-67
2023/01/07 05:21:37;;;;;;;79.80;24.15;;;14.70;83.70;;;;;;5029834;28;20402;-70
2023/01/07 05:24:04;;;;;;;95.47;29.33;;;14.60;84.00;;;;;;5030178;28;20107;-69
2023/01/07 05:26:30;;;;;;;103.65;30.85;;;14.60;84.10;;;;;;5029470;28;20122;-68
2023/01/07 05:28:56;;;;;;;;;;;14.60;84.30;;;;;;5029857;28;20074;-68
2023/01/07 05:31:22;;;;;;;102.85;29.88;;;14.60;83.50;;;;;;5029420;28;19993;-70
2023/01/07 05:33:48;;;;;;;;;;;14.60;83.70;;;;;;5030959;28;20474;-70
2023/01/07 05:36:15;;;;;;;115.15;29.38;;;14.80;83.20;;;;;;5029585;28;20012;-70
2023/01/07 05:38:41;;;;;;;;;;;14.70;83.10;;;;;;5030007;28;20097;-70
2023/01/07 05:41:07;;;;;;;110.15;29.23;;;14.60;83.10;;;;;;5029413;28;19957;-70
2023/01/07 05:43:34;;;;;;;94.47;28.25;;;14.60;83.80;;;;;;5029441;28;20078;-71
2023/01/07 05:46:00;;;;;;;86.30;27.23;;;14.50;84.20;;;;;;5030051;28;20074;-70
2023/01/07 05:48:26;;;;;;;;;;;14.40;84.90;;;;;;5030893;28;20085;-70
2023/01/07 05:50:53;;;;;;;124.45;34.88;;;14.30;84.60;;;;;;5029176;28;20020;-71
2023/01/07 05:53:19;;;;;;;;;;;14.20;84.10;;;;;;5030173;28;20180;-71
2023/01/07 05:55:45;;;;;;;99.22;27.15;;;14.20;84.50;;;;;;5028841;28;19977;-69
2023/01/07 05:58:11;;;;;;;121.75;27.95;;;14.00;84.60;;;;;;5029061;28;20066;-70
2023/01/07 06:00:38;;;;;;;;;;;14.00;83.90;;;;;;5027988;28;20447;-69
2023/01/07 06:03:05;;;;;;;85.55;26.70;;;14.00;83.90;;;;;;5029424;28;20060;-69
2023/01/07 06:05:31;;;;;;;101.30;27.33;;;13.90;84.40;;;;;;5028791;28;20558;-70
2023/01/07 06:07:58;;;;;;;93.30;27.42;;;14.00;83.90;;;;;;5031631;28;20164;-69
2023/01/07 06:10:24;;;;;;;;;;;13.90;84.50;;;;;;5033406;28;20578;-69
2023/01/07 06:12:50;;;;;;;94.00;28.02;;;13.90;84.40;;;;;;5032914;28;19989;-70
2023/01/07 06:15:17;;;;;;;86.68;27.10;;;13.80;84.20;;;;;;5031742;28;20169;-70
2023/01/07 06:17:44;;;;;;;111.63;35.78;;;13.90;84.30;;;;;;5033073;28;20074;-71
2023/01/07 06:20:10;;;;;;;;;;;13.90;84.30;;;;;;5033352;28;20094;-71
2023/01/07 06:22:37;;;;;;;81.72;26.52;;;13.90;85.60;;;;;;5032870;28;20407;-71
2023/01/07 06:25:03;;;;;;;;;;;13.80;84.70;;;;;;5031987;28;20117;-72
2023/01/07 06:27:29;;;;;;;90.80;28.38;;;13.80;84.80;;;;;;5032621;28;20020;-70
2023/01/07 06:29:56;;;;;;;91.00;27.63;;;13.70;85.00;;;;;;5032790;28;20105;-70
2023/01/07 06:32:22;;;;;;;;;;;13.60;86.70;;;;;;5033065;28;20093;-71
2023/01/07 06:34:48;;;;;;;109.47;30.63;;;13.70;85.80;;;;;;5033652;28;19976;-67
2023/01/07 06:37:16;;;;;;;;;;;13.50;86.10;;;;;;5033345;28;20105;-71
2023/01/07 06:39:43;;;;;;;94.55;28.70;;;13.40;86.40;;;;;;5032444;28;19972;-71
2023/01/07 06:42:10;;;;;;;84.30;26.70;;;13.40;87.50;;;;;;5032556;28;20069;-69
2023/01/07 06:44:36;;;;;;;;;;;13.40;86.50;;;;;;5033008;28;20135;-73
2023/01/07 06:47:02;;;;;;;102.55;28.90;;;13.40;87.00;;;;;;5033225;28;19973;-70
2023/01/07 06:49:28;;;;;;;;;;;13.30;87.30;;;;;;5033111;28;20079;-69
2023/01/07 06:51:54;;;;;;;70.68;26.90;;;13.20;87.00;;;;;;5032030;28;19977;-71
2023/01/07 06:54:21;;;;;;;87.88;27.00;;;13.30;87.50;;;;;;5032633;28;20066;-71
2023/01/07 06:56:47;;;;;;;;;;;13.30;87.40;;;;;;5032651;28;20089;-71
2023/01/07 06:59:13;;;;;;;81.63;26.25;;;13.20;87.00;;;;;;5032666;28;19961;-68
2023/01/07 07:01:40;;;;;;;73.82;25.55;;;13.10;87.70;;;;;;5032181;28;20558;-71
2023/01/07 07:04:06;;;;;;;;;;;13.10;87.90;;;;;;5033361;28;20161;-69
2023/01/07 07:06:32;;;;;;;79.10;25.30;;;13.10;87.50;;;;;;5032407;28;19958;-70
2023/01/07 07:08:58;;;;;;;81.18;25.75;;;13.20;86.00;;;;;;5032249;28;20215;-70
2023/01/07 07:11:24;;;;;;;;;;;13.10;87.00;;;;;;5032602;28;20085;-71
2023/01/07 07:13:51;;;;;;;71.43;24.52;;;13.00;86.40;;;;;;5032202;28;19973;-68
2023/01/07 07:16:17;;;;;;;;;;;13.10;86.70;;;;;;5033347;28;20081;-68
2023/01/07 07:18:43;;;;;;;62.00;20.52;;;13.00;86.00;;;;;;5031225;28;19958;-67
2023/01/07 07:21:09;;;;;;;;;;;12.90;86.00;;;;;;5033675;28;20117;-66
2023/01/07 07:23:36;;;;;;;51.78;21.05;;;13.00;86.20;;;;;;5031646;28;20411;-66
2023/01/07 07:26:02;;;;;;;;;;;13.00;85.60;;;;;;5033993;28;20192;-69
2023/01/07 07:28:28;;;;;;;49.63;20.50;;;12.90;84.80;;;;;;5032076;28;19983;-66
2023/01/07 07:30:54;;;;;;;;;;;12.90;82.40;;;;;;5032128;28;20090;-69
2023/01/07 07:33:21;;;;;;;48.75;19.73;;;12.90;82.00;;;;;;5031415;28;19964;-69
2023/01/07 07:35:47;;;;;;;;;;;13.00;82.80;;;;;;5031448;28;20082;-67
2023/01/07 07:38:15;;;;;;;51.30;20.10;;;13.00;82.60;;;;;;5030614;28;19958;-69
2023/01/07 07:40:41;;;;;;;49.63;19.63;;;12.90;83.80;;;;;;5031359;28;20133;-67
2023/01/07 07:43:07;;;;;;;;;;;12.80;84.30;;;;;;5032233;28;20121;-70
2023/01/07 07:45:33;;;;;;;58.95;20.88;;;12.70;83.20;;;;;;5030865;28;20048;-69
2023/01/07 07:47:59;;;;;;;;;;;12.70;84.10;;;;;;5032245;28;20497;-68
2023/01/07 07:50:26;;;;;;;52.45;21.40;;;12.70;83.90;;;;;;5031089;28;20360;-67
2023/01/07 07:52:53;;;;;;;55.45;25.20;;;12.70;84.80;;;;;;5031527;28;20132;-69
2023/01/07 07:55:20;;;;;;;70.72;25.05;;;12.70;84.20;;;;;;5031112;28;20523;-70
2023/01/07 07:57:46;;;;;;;;;;;12.60;84.30;;;;;;5032045;28;20111;-67
2023/01/07 08:00:13;;;;;;;74.88;25.40;;;12.50;85.00;;;;;;5032286;28;20303;-69
2023/01/07 08:02:39;;;;;;;66.25;25.10;;;12.60;84.80;;;;;;5031937;28;20077;-67
2023/01/07 08:05:11;;;;;;;;;;;12.60;84.40;;;;;;5031416;28;20089;-70
2023/01/07 08:07:38;;;;;;;70.43;26.15;;;12.40;84.20;;;;;;5030935;28;19964;-69
2023/01/07 08:10:05;;;;;;;55.55;23.55;;;12.30;85.30;;;;;;5030574;28;20578;-70
2023/01/07 08:12:35;;;;;;;55.08;23.70;;;12.30;84.70;;;;;;5031182;28;20066;-69
2023/01/07 08:15:02;;;;;;;55.92;21.35;;;12.40;84.40;;;;;;5030928;28;20165;-70
2023/01/07 08:17:28;;;;;;;53.72;19.42;;;12.40;85.70;;;;;;5030394;28;20427;-68
2023/01/07 08:19:54;;;;;;;;;;;12.40;85.00;;;;;;5030183;28;20124;-71
2023/01/07 08:22:21;;;;;;;48.53;18.25;;;12.40;84.50;;;;;;5030070;28;20385;-70
2023/01/07 08:24:47;;;;;;;;;;;12.30;84.00;;;;;;5031860;28;20078;-69
2023/01/07 08:27:13;;;;;;;34.97;13.73;;;12.20;84.10;;;;;;5030839;28;19961;-70
2023/01/07 08:29:39;;;;;;;;;;;12.10;83.90;;;;;;5031151;28;20074;-68
2023/01/07 08:32:05;;;;;;;34.70;12.25;;;12.10;83.80;;;;;;5030672;28;19957;-69
2023/01/07 08:34:32;;;;;;;;;;;12.10;84.30;;;;;;5031962;28;20069;-69
2023/01/07 08:36:58;;;;;;;24.58;9.25;;;12.10;98.10;;;;;;5030962;28;20049;-70
2023/01/07 08:39:24;;;;;;;;;;;11.90;82.60;;;;;;5029253;28;20082;-70
2023/01/07 08:41:50;;;;;;;18.27;7.65;;;12.00;82.40;;;;;;5030232;28;19969;-70
2023/01/07 08:44:16;;;;;;;;;;;12.10;81.90;;;;;;5032031;28;20163;-69
2023/01/07 08:46:43;;;;;;;17.75;6.20;;;12.00;81.20;;;;;;5031292;28;20182;-69
2023/01/07 08:49:09;;;;;;;;;;;12.00;81.90;;;;;;5031594;28;20074;-71
2023/01/07 08:51:36;;;;;;;16.77;5.40;;;12.00;81.50;;;;;;5030531;28;19980;-68
2023/01/07 08:54:03;;;;;;;10.65;4.40;;;12.00;81.20;;;;;;5029973;28;20066;-70
2023/01/07 08:56:29;;;;;;;16.00;4.50;;;11.80;80.00;;;;;;5030324;28;20085;-69
2023/01/07 08:58:55;;;;;;;;;;;11.70;81.30;;;;;;5030452;28;20074;-69
2023/01/07 09:01:21;;;;;;;14.35;4.93;;;11.70;81.40;;;;;;5030255;28;19965;-69
2023/01/07 09:03:49;;;;;;;;;;;11.60;80.30;;;;;;5030434;28;20074;-70
2023/01/07 09:06:15;;;;;;;;;;;11.70;80.30;;;;;;5029370;28;20407;-68
2023/01/07 09:08:41;;;;;;;12.50;4.28;;;11.80;80.50;;;;;;5030198;28;19957;-68
2023/01/07 09:11:07;;;;;;;;;;;11.80;79.60;;;;;;5030266;28;20102;-69
2023/01/07 09:13:34;;;;;;;17.48;3.60;;;11.80;79.40;;;;;;5030028;28;19965;-70
2023/01/07 09:16:00;;;;;;;;;;;11.90;79.90;;;;;;5031445;28;20074;-68
2023/01/07 09:18:26;;;;;;;6.93;3.28;;;11.90;79.80;;;;;;5029802;28;19966;-68
2023/01/07 09:20:52;;;;;;;;;;;11.90;79.60;;;;;;5029974;28;20074;-71
2023/01/07 09:23:18;;;;;;;8.45;3.53;;;11.80;80.60;;;;;;5029672;28;20020;-70
2023/01/07 09:25:46;;;;;;;;;;;11.80;80.30;;;;;;5029993;28;20164;-70
2023/01/07 09:28:12;;;;;;;17.25;3.83;;;11.70;80.40;;;;;;5029975;28;19962;-72
2023/01/07 09:30:38;;;;;;;;;;;11.70;81.30;;;;;;5028726;28;20440;-70
2023/01/07 09:33:05;;;;;;;10.23;3.00;;;11.60;81.80;;;;;;5029257;28;19983;-70
2023/01/07 09:35:31;;;;;;;8.40;2.60;;;11.70;81.90;;;;;;5029345;28;20076;-69
2023/01/07 09:37:57;;;;;;;;;;;11.60;80.70;;;;;;5029778;28;20080;-71
2023/01/07 09:40:37;;;;;;;12.40;3.30;;;11.60;79.40;;;;;;5029554;28;19965;-68
2023/01/07 09:43:23;;;;;;;15.80;3.67;;;11.40;80.20;;;;;;5031438;28;20108;-70
2023/01/07 09:45:57;;;;;;;10.40;3.10;;;11.40;81.40;;;;;;5033882;28;20080;-69
2023/01/07 09:48:35;;;;;;;20.35;2.88;;;11.40;80.70;;;;;;5033582;28;20474;-70
2023/01/07 09:51:08;;;;;;;11.82;2.65;;;11.40;80.10;;;;;;5033308;28;20113;-68
2023/01/07 09:53:37;;;;;;;13.52;2.92;;;11.40;80.60;;;;;;5032640;28;20176;-68
2023/01/07 09:56:10;;;;;;;4.13;1.70;;;11.40;80.70;;;;;;5031240;28;20453;-70
2023/01/07 09:58:46;;;;;;;19.90;2.63;;;11.40;79.70;;;;;;5033288;28;20522;-68
2023/01/07 10:01:30;;;;;;;10.60;2.53;;;11.30;80.00;;;;;;5033485;28;20123;-68
2023/01/07 10:04:44;;;;;;;9.00;3.85;;;11.20;80.60;;;;;;5033387;28;20089;-69
2023/01/07 10:07:36;;;;;;;7.53;3.10;;;11.10;81.20;;;;;;5015761;28;20160;-70
2023/01/07 10:10:29;;;;;;;9.57;2.83;;;11.30;82.00;;;;;;5031982;28;20144;-70
2023/01/07 10:13:28;;;;;;;6.45;2.67;;;11.40;82.00;;;;;;5031523;28;20073;-70
2023/01/07 10:16:27;;;;;;;9.68;1.98;;;11.30;82.80;;;;;;5033302;28;20517;-70
2023/01/07 10:19:04;;;;;;;9.50;2.40;;;11.30;83.20;;;;;;5030473;28;20713;-68
2023/01/07 10:21:49;;;;;;;9.63;1.83;;;11.20;83.40;;;;;;5032807;28;20080;-68
2023/01/07 10:24:22;;;;;;;8.90;2.42;;;11.20;83.90;;;;;;5032472;28;20078;-70
2023/01/07 10:26:52;;;;;;;6.65;1.80;;;11.30;84.00;;;;;;5032765;28;20580;-70
2023/01/07 10:29:40;;;;;;;6.57;2.22;;;11.30;83.70;;;;;;5032215;28;20074;-68
2023/01/07 10:32:15;;;;;;;7.80;1.73;;;11.20;83.40;;;;;;5032872;28;20497;-68
2023/01/07 10:34:46;;;;;;;5.45;1.83;;;11.10;84.40;;;;;;5032207;28;20066;-70
2023/01/07 10:37:42;;;;;;;9.88;2.20;;;11.00;84.30;;;;;;5032430;28;20074;-71
2023/01/07 10:40:33;;;;;;;6.90;1.92;;;11.00;84.10;;;;;;4984201;28;20091;-70
2023/01/07 10:43:23;;;;;;;6.90;1.70;;;11.10;83.80;;;;;;4976994;28;20480;-68
2023/01/07 10:46:02;;;;;;;3.80;1.48;;;11.20;83.60;;;;;;4984473;28;20079;-70
2023/01/07 10:48:57;;;;;;;11.05;1.55;;;11.20;83.30;;;;;;4981140;28;20145;-68
2023/01/07 10:51:55;;;;;;;3.88;1.33;;;11.20;82.90;;;;;;4980354;28;20516;-70
2023/01/07 10:54:38;;;;;;;;;;;11.20;82.80;;;;;;4981898;28;20099;-70
2023/01/07 10:57:18;;;;;;;4.78;1.30;;;11.20;82.70;;;;;;4978865;28;20378;-69
2023/01/07 10:59:49;;;;;;;6.47;1.10;;;11.30;82.40;;;;;;4978825;28;20535;-70
2023/01/07 11:02:18;;;;;;;10.80;1.50;;;11.30;82.90;;;;;;4983924;28;20552;-73
2023/01/07 11:04:45;;;;;;;11.65;1.50;;;11.30;83.20;;;;;;4980092;28;20160;-76
2023/01/07 11:07:26;;;;;;;7.30;1.95;;;11.30;83.20;;;;;;4983132;28;20082;-74
2023/01/07 11:09:58;;;;;;;3.75;1.30;;;11.40;83.00;;;;;;4963534;28;20095;-72
2023/01/07 11:12:32;;;;;;;12.75;11.45;;;11.40;83.20;;;;;;4981093;28;20075;-71
2023/01/07 11:15:02;;;;;;;7.13;1.50;;;11.40;83.60;;;;;;4979022;28;20075;-74
2023/01/07 11:17:42;;;;;;;5.35;1.38;;;11.30;83.80;;;;;;5027049;28;20089;-73
2023/01/07 11:20:09;;;;;;;4.88;1.45;;;11.20;84.10;;;;;;5031640;28;20078;-75
2023/01/07 11:22:37;;;;;;;9.27;1.95;;;11.20;84.00;;;;;;5032535;28;20148;-71
2023/01/07 11:25:27;;;;;;;5.30;1.30;;;11.20;83.50;;;;;;5033005;28;20110;-74
2023/01/07 11:27:59;;;;;;;10.65;1.70;;;11.20;82.90;;;;;;5031214;28;20509;-74
2023/01/07 11:30:30;;;;;;;4.50;1.42;;;11.20;82.20;;;;;;5030689;28;20100;-72
2023/01/07 11:33:05;;;;;;;6.05;1.42;;;11.20;81.60;;;;;;5030177;28;20070;-72
2023/01/07 11:35:32;;;;;;;8.15;1.50;;;11.20;81.20;;;;;;5031242;28;20527;-73
2023/01/07 11:37:59;;;;;;;5.75;1.42;;;11.30;81.10;;;;;;5031418;28;20108;-72
2023/01/07 11:40:30;;;;;;;4.30;1.33;;;11.30;81.10;;;;;;5031220;28;20096;-74
2023/01/07 11:42:58;;;;;;;7.70;1.58;;;11.20;80.70;;;;;;5030233;28;20081;-72
2023/01/07 11:45:30;;;;;;;5.25;1.42;;;11.20;81.10;;;;;;5031491;28;20320;-73
2023/01/07 11:48:09;;;;;;;4.07;1.50;;;11.30;80.70;;;;;;5027456;28;20089;-73
2023/01/07 11:50:40;;;;;;;3.75;1.27;;;11.20;80.60;;;;;;5030370;28;20539;-73
2023/01/07 11:53:15;;;;;;;4.88;1.33;;;11.20;80.90;;;;;;5031413;28;20078;-71
2023/01/07 11:56:14;;;;;;;6.47;1.52;;;11.20;81.60;;;;;;5031247;28;20434;-74
2023/01/07 11:58:45;;;;;;;4.40;1.48;;;11.20;81.90;;;;;;5029974;28;20066;-72
2023/01/07 12:01:19;;;;;;;3.97;1.40;;;11.20;82.10;;;;;;5029930;28;20120;-73
2023/01/07 12:03:52;;;;;;;5.18;1.60;;;11.20;82.40;;;;;;5028599;28;20151;-73
2023/01/07 12:06:32;;;;;;;6.55;1.55;;;11.20;83.00;;;;;;5029559;28;20070;-73
2023/01/07 12:09:12;;;;;;;9.70;1.60;;;11.10;82.70;;;;;;5029712;28;20082;-75
2023/01/07 12:11:41;;;;;;;5.45;1.30;;;11.00;83.30;;;;;;5029292;28;20093;-72
2023/01/07 12:14:28;;;;;;;12.30;1.67;;;11.00;83.40;;;;;;5030898;28;20148;-73
2023/01/07 12:17:21;;;;;;;4.28;1.90;;;10.90;83.90;;;;;;5031157;28;20447;-73
2023/01/07 12:19:59;;;;;;;6.13;1.65;;;10.80;84.70;;;;;;5005948;28;20110;-74
2023/01/07 12:22:41;;;;;;;5.55;1.98;;;10.90;84.40;;;;;;5030845;28;20098;-72
2023/01/07 12:25:30;;;;;;;8.73;1.98;;;10.80;84.60;;;;;;5029841;28;20627;-73
2023/01/07 12:28:15;;;;;;;6.53;1.42;;;10.90;84.90;;;;;;5011352;28;20090;-71
2023/01/07 12:30:53;;;;;;;7.15;1.30;;;10.90;85.20;;;;;;5030248;28;20276;-72
2023/01/07 12:33:39;;;;;;;4.25;1.35;;;11.00;85.60;;;;;;5029935;28;20065;-74
2023/01/07 12:36:26;;;;;;;5.87;1.50;;;10.90;85.50;;;;;;5030174;28;20090;-72
2023/01/07 12:38:57;;;;;;;6.60;1.60;;;10.80;85.50;;;;;;5023906;28;20243;-72
2023/01/07 12:41:30;;;;;;;5.55;1.35;;;10.80;85.80;;;;;;5030283;28;20074;-74
2023/01/07 12:44:19;;;;;;;9.25;1.85;;;10.60;85.50;;;;;;5028832;28;20446;-75
2023/01/07 12:46:53;;;;;;;8.00;3.33;;;10.50;86.30;;;;;;5030355;28;20088;-74
2023/01/07 12:49:25;;;;;;;19.55;7.35;;;10.40;86.50;;;;;;5030087;28;20176;-73
2023/01/07 12:52:12;;;;;;;10.77;6.00;;;10.40;86.80;;;;;;5030002;28;20081;-71
2023/01/07 12:54:51;;;;;;;12.68;5.00;;;10.40;86.60;;;;;;5028989;28;20074;-71
2023/01/07 12:57:49;;;;;;;10.50;3.88;;;10.20;86.80;;;;;;5029972;28;20398;-72
2023/01/07 13:00:25;;;;;;;11.65;3.50;;;10.20;86.80;;;;;;4993318;28;20178;-73
2023/01/07 13:02:55;;;;;;;;;;;10.10;86.80;;;;;;5028682;28;20077;-73
2023/01/07 13:05:31;;;;;;;9.77;3.72;;;10.00;86.60;;;;;;5028926;28;20041;-73
2023/01/07 13:08:32;;;;;;;11.55;3.85;;;10.00;86.60;;;;;;5030716;28;20078;-73
2023/01/07 13:12:41;;;;;;;6.57;3.03;;;10.10;86.80;;;;;;5029834;28;20090;-72
2023/01/07 13:14:15;;;;;;;6.70;3.20;;;10.10;86.30;;;;;;5029892;28;20152;-71
2023/01/07 13:16:43;;;;;;;9.65;3.63;;;10.00;85.90;;;;;;5030102;28;20080;-72
2023/01/07 13:19:09;;;;;;;12.32;3.60;;;10.00;86.20;;;;;;5030321;28;20085;-73
2023/01/07 13:21:37;;;;;;;;;;;9.90;85.70;;;;;;5030063;28;20077;-74
2023/01/07 13:24:16;;;;;;;9.63;2.80;;;9.90;85.90;;;;;;5029965;28;19963;-73